Inland, Nebraska
Current Conditions -  °F | °C
As of 2:53 AM on Friday 24 Oct 2014 (Local Time) from KHSI Reporting Station
Haze Haze  
Wind Chill: 57°   Ceiling: Unl
Heat Index: 57°   Visibility: 5mi
Dew Point: 53°   Wind: 8mph
Humidity: 87%   Direction: 200°SSW
Pressure: 29.98"   Gusts: NA
Location:  40.6°N, 98.22°W
Report Text: KHSI 240753Z AUTO 20007KT 5SM BR CLR 14/12 A2998 RMK AO2 SLP150 T01390117
Loading
Personal Weather Stations






























Interactive Weather Map
Tropical Storm Tracking
New forecast layout! Learn more

10-Day Weather Forecast

Advertisements
Track Severe Weather on mobile